createdAt,value
2022-12-22T00:00:31.623Z,62.42
2022-12-22T00:03:20.099Z,63.18
2022-12-22T00:05:48.696Z,62.89
2022-12-22T00:08:17.004Z,62.60
2022-12-22T00:10:45.275Z,62.24
2022-12-22T00:13:15.634Z,62.65
2022-12-22T00:15:43.997Z,62.25
2022-12-22T00:18:17.503Z,63.02
2022-12-22T00:20:45.908Z,62.95
2022-12-22T00:23:14.299Z,63.17
2022-12-22T00:25:42.871Z,62.68
2022-12-22T00:28:14.998Z,63.03
2022-12-22T00:30:45.598Z,63.46
2022-12-22T00:33:17.243Z,63.28
2022-12-22T00:35:47.002Z,62.81
2022-12-22T00:38:18.164Z,63.57
2022-12-22T00:40:46.764Z,63.24
2022-12-22T00:43:16.380Z,63.22
2022-12-22T00:45:46.289Z,63.15
2022-12-22T00:48:25.294Z,63.67
2022-12-22T00:50:53.587Z,63.11
2022-12-22T00:53:22.677Z,63.05
2022-12-22T00:55:51.178Z,62.64
2022-12-22T00:58:20.575Z,62.39
2022-12-22T01:00:48.858Z,62.51
2022-12-22T01:03:17.626Z,62.34
2022-12-22T01:05:46.684Z,61.78
2022-12-22T01:08:15.291Z,62.23
2022-12-22T01:10:43.694Z,61.77
2022-12-22T01:13:17.252Z,62.04
2022-12-22T01:15:48.524Z,62.36
2022-12-22T01:18:18.846Z,62.13
2022-12-22T01:20:47.870Z,62.14
2022-12-22T01:23:16.293Z,62.09
2022-12-22T01:25:44.811Z,61.81
2022-12-22T01:28:20.034Z,61.64
2022-12-22T01:30:48.711Z,61.93
2022-12-22T01:33:17.011Z,62.84
2022-12-22T01:35:45.395Z,61.74
2022-12-22T01:38:14.136Z,62.42
2022-12-22T01:40:42.503Z,62.19
2022-12-22T01:43:27.937Z,62.19
2022-12-22T01:45:56.320Z,62.36
2022-12-22T01:48:29.645Z,62.26
2022-12-22T01:50:59.978Z,62.76
2022-12-22T01:53:30.653Z,62.63
2022-12-22T01:56:00.718Z,62.25
2022-12-22T01:58:33.177Z,62.27
2022-12-22T02:01:01.368Z,63.00
2022-12-22T02:03:29.680Z,62.82
2022-12-22T02:06:07.589Z,62.59
2022-12-22T02:08:43.884Z,63.04
2022-12-22T02:11:48.811Z,62.91
2022-12-22T02:14:32.321Z,63.39
2022-12-22T02:17:32.271Z,63.37
2022-12-22T02:20:23.407Z,62.96
2022-12-22T02:23:10.432Z,63.08
2022-12-22T02:25:48.004Z,62.91
2022-12-22T02:28:18.528Z,63.29
2022-12-22T02:30:49.524Z,63.28
2022-12-22T02:33:20.773Z,63.07
2022-12-22T02:36:13.183Z,63.93
2022-12-22T02:38:50.396Z,63.91
2022-12-22T02:41:31.172Z,64.27
2022-12-22T02:44:17.830Z,64.08
2022-12-22T02:47:16.729Z,64.37
2022-12-22T02:49:57.395Z,63.60
2022-12-22T02:52:31.489Z,64.09
2022-12-22T02:55:00.744Z,63.69
2022-12-22T02:57:29.859Z,64.14
2022-12-22T02:59:58.406Z,63.71
2022-12-22T03:02:28.340Z,63.91
2022-12-22T03:04:56.701Z,63.98
2022-12-22T03:07:25.132Z,63.50
2022-12-22T03:09:54.034Z,64.05
2022-12-22T03:12:22.205Z,63.43
2022-12-22T03:14:53.838Z,64.02
2022-12-22T03:17:22.043Z,63.25
2022-12-22T03:19:50.642Z,63.23
2022-12-22T03:22:18.919Z,63.44
2022-12-22T03:24:47.096Z,63.78
2022-12-22T03:27:16.910Z,63.97
2022-12-22T03:29:45.569Z,63.75
2022-12-22T03:32:14.025Z,63.82
2022-12-22T03:34:42.394Z,63.61
2022-12-22T03:37:10.846Z,63.47
2022-12-22T03:39:42.073Z,64.12
2022-12-22T03:42:13.775Z,63.85
2022-12-22T03:44:41.902Z,64.21
2022-12-22T03:47:10.034Z,64.45
2022-12-22T03:49:40.390Z,64.43
2022-12-22T03:52:08.601Z,64.40
2022-12-22T03:54:36.783Z,64.31
2022-12-22T03:57:05.026Z,64.65
2022-12-22T03:59:33.412Z,64.40
2022-12-22T04:02:01.929Z,64.20
2022-12-22T04:04:30.424Z,64.47
2022-12-22T04:06:59.228Z,64.77
2022-12-22T04:09:27.524Z,64.76
2022-12-22T04:11:56.174Z,64.78
2022-12-22T04:14:29.807Z,64.54
2022-12-22T04:17:02.853Z,64.79
2022-12-22T04:19:31.564Z,64.70
2022-12-22T04:22:00.168Z,64.83
2022-12-22T04:24:30.737Z,65.25
2022-12-22T04:26:59.206Z,64.98
2022-12-22T04:29:27.297Z,64.83
2022-12-22T04:31:55.674Z,64.84
2022-12-22T04:34:24.883Z,64.96
2022-12-22T04:36:53.385Z,65.10
2022-12-22T04:39:21.749Z,64.92
2022-12-22T04:41:49.923Z,65.11
2022-12-22T04:44:18.910Z,65.38
2022-12-22T04:46:47.300Z,65.71
2022-12-22T04:49:15.616Z,66.37
2022-12-22T04:51:44.289Z,66.39
2022-12-22T04:54:12.520Z,66.54
2022-12-22T04:56:40.784Z,66.51
2022-12-22T04:59:08.978Z,66.40
2022-12-22T05:01:37.201Z,66.25
2022-12-22T05:04:05.609Z,66.89
2022-12-22T05:06:34.721Z,66.35
2022-12-22T05:09:03.173Z,66.59
2022-12-22T05:11:31.498Z,66.56
2022-12-22T05:14:05.338Z,66.63
2022-12-22T05:16:36.585Z,66.84
2022-12-22T05:19:05.401Z,66.53
2022-12-22T05:21:34.962Z,67.03
2022-12-22T05:24:03.507Z,67.21
2022-12-22T05:26:31.577Z,66.96
2022-12-22T05:28:59.737Z,66.73
2022-12-22T05:31:28.104Z,66.90
2022-12-22T05:33:56.688Z,67.47
2022-12-22T05:36:24.933Z,67.31
2022-12-22T05:38:53.348Z,67.24
2022-12-22T05:41:21.656Z,67.04
2022-12-22T05:43:50.858Z,66.78
2022-12-22T05:46:19.305Z,66.44
2022-12-22T05:48:48.445Z,66.94
2022-12-22T05:51:16.793Z,67.20
2022-12-22T05:53:45.473Z,66.82
2022-12-22T05:56:13.588Z,66.91
2022-12-22T05:58:41.704Z,66.90
2022-12-22T06:01:10.648Z,67.01
2022-12-22T06:03:39.089Z,66.69
2022-12-22T06:06:07.926Z,66.86
2022-12-22T06:08:36.465Z,67.04
2022-12-22T06:11:04.712Z,66.87
2022-12-22T06:13:32.923Z,66.50
2022-12-22T06:16:01.150Z,66.22
2022-12-22T06:18:29.336Z,66.02
2022-12-22T06:20:57.476Z,66.52
2022-12-22T06:23:27.010Z,66.04
2022-12-22T06:26:00.439Z,65.68
2022-12-22T06:28:29.400Z,65.66
2022-12-22T06:30:57.850Z,66.05
2022-12-22T06:33:26.097Z,66.15
2022-12-22T06:35:58.946Z,66.33
2022-12-22T06:38:28.704Z,66.29
2022-12-22T06:40:57.244Z,66.58
2022-12-22T06:43:26.308Z,66.04
2022-12-22T06:45:54.652Z,66.50
2022-12-22T06:48:24.532Z,66.11
2022-12-22T06:50:58.073Z,66.46
2022-12-22T06:53:27.892Z,66.09
2022-12-22T06:55:56.062Z,65.68
2022-12-22T06:58:24.269Z,65.83
2022-12-22T07:00:56.814Z,65.71
2022-12-22T07:03:25.269Z,65.93
2022-12-22T07:05:53.996Z,65.87
2022-12-22T07:08:24.175Z,65.86
2022-12-22T07:10:52.334Z,65.95
2022-12-22T07:13:20.534Z,65.93
2022-12-22T07:15:59.543Z,65.76
2022-12-22T07:18:34.803Z,65.57
2022-12-22T07:21:06.306Z,65.70
2022-12-22T07:23:36.824Z,65.64
2022-12-22T07:26:08.038Z,65.43
2022-12-22T07:28:38.333Z,65.48
2022-12-22T07:31:07.565Z,65.81
2022-12-22T07:33:37.314Z,66.11
2022-12-22T07:36:08.755Z,65.35
2022-12-22T07:38:40.347Z,65.38
2022-12-22T07:41:10.291Z,65.07
2022-12-22T07:43:38.831Z,65.05
2022-12-22T07:46:07.345Z,64.82
2022-12-22T07:48:36.105Z,64.58
2022-12-22T07:51:06.485Z,64.24
2022-12-22T07:53:35.150Z,62.61
2022-12-22T07:56:05.204Z,60.36
2022-12-22T07:58:33.806Z,57.40
2022-12-22T08:01:03.137Z,54.36
2022-12-22T08:03:31.266Z,50.94
2022-12-22T08:05:59.583Z,47.90
2022-12-22T08:08:27.642Z,44.52
2022-12-22T08:10:55.844Z,42.86
2022-12-22T08:13:24.103Z,40.81
2022-12-22T08:15:52.566Z,40.70
2022-12-22T08:18:21.217Z,40.74
2022-12-22T08:20:52.707Z,40.56
2022-12-22T08:23:20.797Z,40.46
2022-12-22T08:25:55.701Z,40.17
2022-12-22T08:28:24.271Z,39.74
2022-12-22T08:30:52.540Z,38.28
2022-12-22T08:33:21.767Z,36.93
2022-12-22T08:35:49.926Z,35.24
2022-12-22T08:38:18.275Z,33.65
2022-12-22T08:40:47.900Z,32.17
2022-12-22T08:43:17.375Z,30.70
2022-12-22T08:45:45.711Z,28.74
2022-12-22T08:48:13.960Z,28.04
2022-12-22T08:50:42.296Z,26.97
2022-12-22T08:53:29.741Z,26.47
2022-12-22T08:55:58.849Z,25.81
2022-12-22T08:58:27.044Z,25.78
2022-12-22T09:00:55.266Z,24.82
2022-12-22T09:03:26.775Z,24.30
2022-12-22T09:06:03.804Z,23.90
2022-12-22T09:08:32.197Z,23.56
2022-12-22T09:11:04.691Z,23.57
2022-12-22T09:13:33.032Z,22.86
2022-12-22T09:16:09.721Z,22.02
2022-12-22T09:18:38.231Z,21.56
2022-12-22T09:21:06.340Z,21.38
2022-12-22T09:23:34.571Z,20.80
2022-12-22T09:26:11.318Z,20.11
2022-12-22T09:28:42.623Z,20.14
2022-12-22T09:31:16.193Z,19.70
2022-12-22T09:33:44.956Z,19.18
2022-12-22T09:36:15.980Z,18.96
2022-12-22T09:38:44.604Z,18.46
2022-12-22T09:41:25.470Z,18.43
2022-12-22T09:43:56.386Z,18.16
2022-12-22T09:46:28.923Z,18.23
2022-12-22T09:48:58.270Z,18.43
2022-12-22T09:51:27.682Z,18.54
2022-12-22T09:54:00.865Z,19.26
2022-12-22T09:56:29.674Z,20.15
2022-12-22T09:58:57.887Z,20.55
2022-12-22T10:01:54.037Z,21.20
2022-12-22T10:04:28.414Z,21.44
2022-12-22T10:07:10.012Z,21.49
2022-12-22T10:09:53.429Z,20.51
2022-12-22T10:12:24.509Z,20.34
2022-12-22T10:14:54.595Z,20.07
2022-12-22T10:17:28.016Z,19.98
2022-12-22T10:20:26.597Z,19.27
2022-12-22T10:22:58.845Z,18.78
2022-12-22T10:26:25.872Z,18.51
2022-12-22T10:28:39.152Z,18.05
2022-12-22T10:31:15.140Z,18.09
2022-12-22T10:33:47.471Z,17.36
2022-12-22T10:36:22.374Z,17.55
2022-12-22T10:39:09.379Z,16.63
2022-12-22T10:41:44.008Z,16.47
2022-12-22T10:44:26.335Z,16.68
2022-12-22T10:46:57.897Z,16.36
2022-12-22T10:52:29.440Z,16.19
2022-12-22T10:55:20.056Z,16.17
2022-12-22T10:57:49.497Z,16.01
2022-12-22T11:00:28.414Z,15.62
2022-12-22T11:03:02.006Z,15.41
2022-12-22T11:05:32.369Z,15.38
2022-12-22T11:08:12.878Z,15.56
2022-12-22T11:11:07.462Z,15.43
2022-12-22T11:14:04.301Z,15.99
2022-12-22T11:16:32.778Z,16.24
2022-12-22T11:19:02.370Z,16.36
2022-12-22T11:21:56.341Z,16.74
2022-12-22T11:24:58.711Z,17.18
2022-12-22T11:27:45.576Z,17.47
2022-12-22T11:30:19.889Z,18.03
2022-12-22T11:33:32.328Z,17.94
2022-12-22T11:36:09.813Z,18.13
2022-12-22T11:39:17.554Z,18.38
2022-12-22T11:42:00.835Z,18.26
2022-12-22T11:45:01.894Z,18.19
2022-12-22T11:47:47.374Z,17.89
2022-12-22T11:50:59.305Z,17.55
2022-12-22T11:53:49.472Z,17.64
2022-12-22T11:56:25.647Z,18.16
2022-12-22T11:59:01.031Z,19.04
2022-12-22T12:01:44.242Z,20.24
2022-12-22T12:04:50.419Z,21.06
2022-12-22T12:07:31.962Z,21.91
2022-12-22T12:10:25.153Z,22.90
2022-12-22T12:13:18.074Z,23.76
2022-12-22T12:16:01.986Z,24.23
2022-12-22T12:18:43.495Z,24.66
2022-12-22T12:21:29.929Z,25.36
2022-12-22T12:24:17.282Z,25.46
2022-12-22T12:27:22.555Z,26.10
2022-12-22T12:30:36.858Z,26.98
2022-12-22T12:32:58.689Z,27.36
2022-12-22T12:35:45.894Z,27.66
2022-12-22T12:39:06.371Z,29.32
2022-12-22T12:41:43.341Z,28.98
2022-12-22T12:44:19.432Z,29.56
2022-12-22T12:46:56.131Z,29.79
2022-12-22T12:49:36.856Z,30.09
2022-12-22T12:52:11.757Z,29.97
2022-12-22T12:54:46.140Z,30.77
2022-12-22T12:57:46.202Z,30.86
2022-12-22T13:00:33.490Z,31.03
2022-12-22T13:04:01.281Z,30.94
2022-12-22T13:06:50.563Z,31.10
2022-12-22T13:12:40.917Z,31.81
2022-12-22T13:15:32.095Z,31.88
2022-12-22T13:18:03.042Z,32.03
2022-12-22T13:21:34.439Z,31.59
2022-12-22T13:24:23.008Z,31.74
2022-12-22T13:26:49.473Z,31.84
2022-12-22T13:29:28.526Z,31.93
2022-12-22T13:32:05.155Z,32.28
2022-12-22T13:35:20.105Z,32.69
2022-12-22T13:37:41.862Z,32.71
2022-12-22T13:40:23.616Z,32.83
2022-12-22T13:42:53.562Z,32.95
2022-12-22T13:45:33.206Z,33.33
2022-12-22T13:48:06.553Z,33.35
2022-12-22T13:50:44.017Z,33.52
2022-12-22T13:53:42.310Z,33.48
2022-12-22T13:56:12.531Z,33.80
2022-12-22T13:58:43.548Z,34.29
2022-12-22T14:01:11.771Z,33.84
2022-12-22T14:04:00.014Z,34.22
2022-12-22T14:06:37.603Z,34.04
2022-12-22T14:09:19.172Z,34.04
2022-12-22T14:11:52.993Z,33.50
2022-12-22T14:14:29.089Z,33.86
2022-12-22T14:16:59.892Z,33.74
2022-12-22T14:19:33.968Z,34.15
2022-12-22T14:22:26.730Z,33.57
2022-12-22T14:25:01.112Z,33.69
2022-12-22T14:27:40.410Z,34.22
2022-12-22T14:30:21.340Z,34.43
2022-12-22T14:32:55.500Z,34.43
2022-12-22T14:35:28.711Z,35.29
2022-12-22T14:38:03.021Z,35.30
2022-12-22T14:40:34.378Z,35.15
2022-12-22T14:43:07.225Z,35.40
2022-12-22T14:45:35.438Z,36.15
2022-12-22T14:48:09.227Z,36.38
2022-12-22T14:50:37.626Z,36.56
2022-12-22T14:53:06.056Z,36.60
2022-12-22T14:55:42.226Z,37.60
2022-12-22T14:58:10.352Z,37.24
2022-12-22T15:00:44.413Z,37.73
2022-12-22T15:03:25.075Z,37.51
2022-12-22T15:05:53.547Z,37.69
2022-12-22T15:08:42.846Z,37.95
2022-12-22T15:11:20.436Z,38.05
2022-12-22T15:13:52.038Z,38.07
2022-12-22T15:16:24.866Z,38.53
2022-12-22T15:18:53.569Z,38.85
2022-12-22T15:21:22.051Z,38.42
2022-12-22T15:23:50.341Z,38.78
2022-12-22T15:26:18.551Z,38.90
2022-12-22T15:28:46.854Z,38.34
2022-12-22T15:31:17.593Z,38.69
2022-12-22T15:33:46.311Z,38.76
2022-12-22T15:36:15.090Z,38.99
2022-12-22T15:38:43.739Z,39.21
2022-12-22T15:41:11.953Z,39.27
2022-12-22T15:43:58.442Z,40.05
2022-12-22T15:46:27.278Z,39.87
2022-12-22T15:48:55.609Z,39.80
2022-12-22T15:51:30.149Z,40.28
2022-12-22T15:53:59.637Z,40.83
2022-12-22T15:56:31.513Z,40.85
2022-12-22T15:59:01.837Z,41.56
2022-12-22T16:01:30.259Z,41.56
2022-12-22T16:03:58.634Z,41.63
2022-12-22T16:06:27.191Z,41.65
2022-12-22T16:08:55.743Z,42.46
2022-12-22T16:11:23.995Z,42.39
2022-12-22T16:13:53.026Z,43.68
2022-12-22T16:16:21.593Z,43.19
2022-12-22T16:18:50.268Z,43.84
2022-12-22T16:21:21.689Z,44.23
2022-12-22T16:23:51.608Z,44.26
2022-12-22T16:26:21.538Z,44.48
2022-12-22T16:28:49.876Z,44.43
2022-12-22T16:31:23.570Z,45.14
2022-12-22T16:33:52.817Z,45.15
2022-12-22T16:36:22.231Z,45.77
2022-12-22T16:38:51.053Z,45.76
2022-12-22T16:41:23.958Z,45.98
2022-12-22T16:46:41.660Z,46.59
2022-12-22T16:49:10.362Z,47.11
2022-12-22T16:51:48.390Z,46.84
2022-12-22T16:54:17.233Z,46.96
2022-12-22T16:56:45.467Z,47.42
2022-12-22T16:59:14.199Z,47.26
2022-12-22T17:01:52.908Z,47.42
2022-12-22T17:04:32.479Z,47.65
2022-12-22T17:07:02.600Z,48.08
2022-12-22T17:09:43.841Z,48.59
2022-12-22T17:12:26.607Z,48.94
2022-12-22T17:14:56.618Z,48.43
2022-12-22T17:17:31.903Z,49.69
2022-12-22T17:20:02.286Z,49.10
2022-12-22T17:22:32.791Z,48.93
2022-12-22T17:25:05.485Z,49.85
2022-12-22T17:27:35.340Z,49.83
2022-12-22T17:30:04.688Z,50.20
2022-12-22T17:32:32.922Z,51.42
2022-12-22T17:35:01.220Z,50.68
2022-12-22T17:37:29.680Z,50.67
2022-12-22T17:40:01.858Z,50.83
2022-12-22T17:42:32.240Z,50.58
2022-12-22T17:45:00.705Z,50.45
2022-12-22T17:47:34.653Z,51.43
2022-12-22T17:50:11.223Z,51.39
2022-12-22T17:52:40.202Z,51.59
2022-12-22T17:55:49.782Z,51.64
2022-12-22T17:58:14.756Z,51.31
2022-12-22T18:00:43.399Z,51.90
2022-12-22T18:03:15.941Z,51.70
2022-12-22T18:05:47.041Z,52.09
2022-12-22T18:08:20.693Z,52.94
2022-12-22T18:10:49.984Z,52.54
2022-12-22T18:13:22.695Z,52.64
2022-12-22T18:15:51.053Z,53.22
2022-12-22T18:18:19.480Z,53.41
2022-12-22T18:21:05.747Z,53.52
2022-12-22T18:23:37.029Z,53.79
2022-12-22T18:26:07.181Z,53.35
2022-12-22T18:28:36.064Z,54.05
2022-12-22T18:31:04.742Z,54.52
2022-12-22T18:33:33.602Z,54.59
2022-12-22T18:36:02.539Z,54.87
2022-12-22T18:38:34.056Z,55.81
2022-12-22T18:41:04.157Z,54.50
2022-12-22T18:43:32.510Z,54.50
2022-12-22T18:46:01.063Z,54.10
2022-12-22T18:48:29.452Z,54.29
2022-12-22T18:50:57.755Z,53.68
2022-12-22T18:53:31.955Z,53.50
2022-12-22T18:56:00.469Z,53.64
2022-12-22T18:58:28.678Z,54.55
2022-12-22T19:00:57.296Z,53.98
2022-12-22T19:03:28.136Z,53.72
2022-12-22T19:05:57.857Z,54.31
2022-12-22T19:08:27.769Z,54.60
2022-12-22T19:11:04.019Z,54.09
2022-12-22T19:13:43.349Z,54.18
2022-12-22T19:16:18.384Z,54.88
2022-12-22T19:18:46.591Z,53.97
2022-12-22T19:21:16.974Z,54.91
2022-12-22T19:23:45.640Z,54.34
2022-12-22T19:26:23.370Z,54.78
2022-12-22T19:28:54.766Z,55.09
2022-12-22T19:31:29.470Z,54.98
2022-12-22T19:34:04.494Z,55.10
2022-12-22T19:36:33.051Z,55.32
2022-12-22T19:39:05.149Z,54.48
2022-12-22T19:41:43.548Z,54.94
2022-12-22T19:44:16.245Z,55.05
2022-12-22T19:46:45.285Z,55.08
2022-12-22T19:49:18.842Z,55.48
2022-12-22T19:51:47.565Z,55.31
2022-12-22T19:54:16.524Z,54.95
2022-12-22T19:56:48.909Z,54.97
2022-12-22T19:59:45.868Z,55.48
2022-12-22T20:02:32.914Z,55.55
2022-12-22T20:05:01.154Z,55.04
2022-12-22T20:07:30.773Z,54.96
2022-12-22T20:09:59.154Z,55.09
2022-12-22T20:12:36.588Z,55.10
2022-12-22T20:15:29.411Z,55.12
2022-12-22T20:17:58.419Z,55.10
2022-12-22T20:20:26.579Z,55.36
2022-12-22T20:22:57.649Z,54.93
2022-12-22T20:25:28.405Z,54.92
2022-12-22T20:27:57.068Z,55.32
2022-12-22T20:30:28.589Z,55.32
2022-12-22T20:32:57.454Z,55.61
2022-12-22T20:35:25.835Z,55.50
2022-12-22T20:37:54.457Z,55.65
2022-12-22T20:40:29.547Z,55.23
2022-12-22T20:42:58.786Z,54.94
2022-12-22T20:45:29.871Z,55.37
2022-12-22T20:48:01.267Z,55.61
2022-12-22T20:50:31.000Z,55.67
2022-12-22T20:52:59.252Z,55.30
2022-12-22T20:55:29.057Z,55.46
2022-12-22T20:57:58.251Z,55.56
2022-12-22T21:00:28.617Z,55.17
2022-12-22T21:02:56.928Z,55.25
2022-12-22T21:05:25.696Z,55.30
2022-12-22T21:07:54.158Z,55.85
2022-12-22T21:10:25.015Z,55.71
2022-12-22T21:12:53.437Z,55.59
2022-12-22T21:15:26.926Z,55.61
2022-12-22T21:17:58.510Z,55.71
2022-12-22T21:20:30.349Z,55.59
2022-12-22T21:22:58.584Z,55.52
2022-12-22T21:25:26.981Z,55.53
2022-12-22T21:27:56.411Z,55.52
2022-12-22T21:30:27.178Z,55.36
2022-12-22T21:32:56.327Z,55.58
2022-12-22T21:35:28.996Z,55.85
2022-12-22T21:37:59.317Z,55.56
2022-12-22T21:40:29.956Z,55.97
2022-12-22T21:42:59.012Z,56.41
2022-12-22T21:45:31.727Z,55.96
2022-12-22T21:48:00.064Z,56.55
2022-12-22T21:50:34.130Z,56.49
2022-12-22T21:53:02.378Z,56.65
2022-12-22T21:55:31.570Z,56.62
2022-12-22T21:58:01.054Z,56.91
2022-12-22T22:00:30.429Z,57.27
2022-12-22T22:03:00.729Z,57.16
2022-12-22T22:05:35.736Z,57.09
2022-12-22T22:08:07.026Z,57.37
2022-12-22T22:10:40.434Z,57.57
2022-12-22T22:13:11.753Z,57.66
2022-12-22T22:15:40.105Z,57.40
2022-12-22T22:18:15.296Z,57.18
2022-12-22T22:20:44.144Z,57.29
2022-12-22T22:23:14.298Z,57.84
2022-12-22T22:25:42.424Z,57.92
2022-12-22T22:28:12.000Z,57.35
2022-12-22T22:30:41.263Z,56.85
2022-12-22T22:33:10.655Z,56.91
2022-12-22T22:35:41.123Z,57.19
2022-12-22T22:38:17.761Z,57.25
2022-12-22T22:40:48.674Z,57.08
2022-12-22T22:43:16.892Z,57.22
2022-12-22T22:45:46.601Z,56.83
2022-12-22T22:48:21.323Z,56.84
2022-12-22T22:50:49.991Z,57.43
2022-12-22T22:53:18.315Z,56.83
2022-12-22T22:55:46.598Z,56.92
2022-12-22T22:58:15.581Z,57.05
2022-12-22T23:00:43.822Z,57.20
2022-12-22T23:03:12.176Z,57.52
2022-12-22T23:05:40.388Z,57.22
2022-12-22T23:08:08.837Z,57.19
2022-12-22T23:10:41.543Z,57.08
2022-12-22T23:13:10.316Z,57.54
2022-12-22T23:15:38.647Z,57.38
2022-12-22T23:18:07.112Z,57.33
2022-12-22T23:20:35.462Z,57.82
2022-12-22T23:23:03.645Z,58.07
2022-12-22T23:25:31.793Z,57.97
2022-12-22T23:27:59.933Z,58.09
2022-12-22T23:30:28.134Z,58.41
2022-12-22T23:32:56.177Z,58.61
2022-12-22T23:35:24.358Z,58.44
2022-12-22T23:37:52.633Z,58.03
2022-12-22T23:43:11.213Z,58.57
2022-12-22T23:45:40.804Z,58.71
2022-12-22T23:48:09.655Z,59.30
2022-12-22T23:50:37.857Z,59.37
2022-12-22T23:53:06.075Z,59.36
2022-12-22T23:55:34.404Z,59.41
2022-12-22T23:58:03.178Z,59.45
